createdAt,value
2022-10-19T00:00:17.437Z,7.00
2022-10-19T00:01:17.413Z,7.50
2022-10-19T00:02:17.541Z,8.10
2022-10-19T00:03:20.778Z,7.90
2022-10-19T00:04:17.400Z,7.50
2022-10-19T00:05:17.375Z,7.40
2022-10-19T00:06:17.390Z,8.20
2022-10-19T00:07:17.351Z,7.40
2022-10-19T00:08:17.353Z,7.80
2022-10-19T00:09:17.388Z,7.90
2022-10-19T00:10:17.329Z,7.60
2022-10-19T00:11:17.308Z,6.70
2022-10-19T00:12:17.312Z,7.30
2022-10-19T00:13:17.284Z,7.70
2022-10-19T00:14:17.289Z,7.50
2022-10-19T00:15:17.292Z,7.40
2022-10-19T00:16:17.307Z,7.50
2022-10-19T00:17:17.246Z,7.50
2022-10-19T00:18:17.243Z,7.70
2022-10-19T00:19:17.221Z,7.60
2022-10-19T00:20:17.230Z,7.30
2022-10-19T00:21:17.242Z,7.80
2022-10-19T00:22:17.218Z,7.50
2022-10-19T00:23:17.175Z,7.60
2022-10-19T00:24:17.200Z,7.50
2022-10-19T00:25:17.156Z,7.20
2022-10-19T00:26:17.158Z,7.40
2022-10-19T00:27:17.163Z,7.50
2022-10-19T00:28:17.149Z,7.20
2022-10-19T00:29:17.111Z,7.70
2022-10-19T00:30:17.120Z,7.30
2022-10-19T00:31:17.155Z,6.90
2022-10-19T00:32:17.101Z,7.50
2022-10-19T00:33:17.103Z,7.10
2022-10-19T00:34:17.077Z,7.30
2022-10-19T00:35:17.051Z,7.30
2022-10-19T00:36:17.052Z,7.30
2022-10-19T00:37:17.062Z,8.40
2022-10-19T00:38:17.040Z,7.80
2022-10-19T00:39:19.201Z,8.10
2022-10-19T00:40:17.009Z,7.40
2022-10-19T00:41:16.982Z,7.50
2022-10-19T00:42:17.008Z,7.70
2022-10-19T00:43:16.996Z,7.50
2022-10-19T00:44:16.976Z,8.00
2022-10-19T00:45:16.983Z,7.40
2022-10-19T00:46:16.954Z,7.60
2022-10-19T00:47:16.923Z,7.60
2022-10-19T00:48:16.936Z,7.20
2022-10-19T00:49:16.903Z,7.40
2022-10-19T00:50:16.907Z,7.20
2022-10-19T00:51:16.944Z,7.00
2022-10-19T00:52:16.889Z,7.80
2022-10-19T00:53:16.862Z,7.10
2022-10-19T00:54:16.865Z,7.40
2022-10-19T00:55:16.856Z,6.90
2022-10-19T00:56:16.844Z,6.90
2022-10-19T00:57:16.844Z,7.20
2022-10-19T00:58:16.821Z,7.30
2022-10-19T00:59:16.799Z,7.20
2022-10-19T01:00:16.808Z,6.80
2022-10-19T01:01:16.824Z,7.00
2022-10-19T01:02:16.783Z,7.00
2022-10-19T01:03:16.794Z,7.10
2022-10-19T01:04:16.760Z,7.00
2022-10-19T01:05:16.733Z,7.10
2022-10-19T01:06:16.750Z,7.40
2022-10-19T01:07:16.719Z,7.80
2022-10-19T01:08:16.743Z,7.20
2022-10-19T01:09:16.731Z,7.10
2022-10-19T01:10:16.695Z,6.80
2022-10-19T01:11:16.685Z,7.20
2022-10-19T01:12:16.671Z,6.90
2022-10-19T01:13:16.643Z,7.00
2022-10-19T01:14:16.648Z,6.80
2022-10-19T01:15:16.661Z,7.30
2022-10-19T01:16:16.633Z,8.30
2022-10-19T01:17:16.630Z,6.70
2022-10-19T01:18:16.610Z,7.10
2022-10-19T01:19:16.586Z,7.20
2022-10-19T01:20:16.586Z,7.80
2022-10-19T01:21:16.587Z,7.10
2022-10-19T01:22:16.564Z,8.20
2022-10-19T01:23:16.552Z,7.60
2022-10-19T01:24:16.553Z,7.50
2022-10-19T01:25:16.517Z,7.20
2022-10-19T01:26:16.528Z,7.40
2022-10-19T01:27:16.522Z,7.40
2022-10-19T01:28:16.509Z,6.80
2022-10-19T01:29:16.501Z,7.10
2022-10-19T01:30:16.476Z,7.40
2022-10-19T01:31:16.509Z,6.60
2022-10-19T01:32:16.450Z,6.80
2022-10-19T01:33:16.479Z,7.10
2022-10-19T01:34:16.426Z,7.70
2022-10-19T01:35:16.427Z,6.80
2022-10-19T01:36:16.434Z,6.80
2022-10-19T01:37:16.405Z,6.50
2022-10-19T01:38:16.383Z,6.90
2022-10-19T01:39:16.411Z,6.80
2022-10-19T01:40:16.366Z,6.50
2022-10-19T01:41:16.376Z,6.80
2022-10-19T01:42:16.343Z,6.70
2022-10-19T01:43:16.342Z,6.80
2022-10-19T01:44:16.314Z,6.60
2022-10-19T01:45:16.370Z,6.90
2022-10-19T01:46:16.298Z,6.90
2022-10-19T01:47:16.319Z,6.70
2022-10-19T01:48:16.275Z,6.70
2022-10-19T01:49:16.281Z,6.80
2022-10-19T01:50:16.277Z,6.90
2022-10-19T01:51:16.300Z,6.70
2022-10-19T01:52:16.245Z,7.00
2022-10-19T01:53:16.245Z,7.40
2022-10-19T01:54:16.216Z,7.60
2022-10-19T01:55:16.221Z,7.10
2022-10-19T01:56:16.205Z,7.50
2022-10-19T01:57:16.261Z,7.00
2022-10-19T01:58:16.170Z,7.00
2022-10-19T01:59:16.180Z,7.00
2022-10-19T02:00:16.150Z,7.60
2022-10-19T02:01:16.161Z,7.30
2022-10-19T02:02:16.135Z,7.50
2022-10-19T02:03:16.171Z,8.20
2022-10-19T02:04:16.114Z,6.90
2022-10-19T02:05:16.115Z,7.00
2022-10-19T02:06:16.091Z,7.30
2022-10-19T02:07:16.093Z,7.60
2022-10-19T02:08:16.068Z,7.50
2022-10-19T02:09:16.113Z,7.20
2022-10-19T02:10:16.086Z,7.10
2022-10-19T02:11:16.052Z,7.30
2022-10-19T02:12:16.027Z,7.90
2022-10-19T02:13:16.041Z,7.90
2022-10-19T02:14:15.999Z,9.10
2022-10-19T02:15:19.453Z,8.20
2022-10-19T02:16:15.983Z,7.80
2022-10-19T02:17:16.000Z,7.30
2022-10-19T02:18:15.971Z,6.60
2022-10-19T02:19:15.977Z,7.00
2022-10-19T02:20:15.956Z,6.70
2022-10-19T02:21:15.974Z,7.40
2022-10-19T02:22:15.913Z,7.40
2022-10-19T02:23:15.927Z,7.20
2022-10-19T02:24:15.896Z,6.90
2022-10-19T02:25:15.901Z,6.90
2022-10-19T02:26:15.871Z,7.70
2022-10-19T02:27:15.910Z,7.00
2022-10-19T02:28:15.970Z,7.10
2022-10-19T02:29:15.862Z,6.90
2022-10-19T02:30:15.848Z,12.00
2022-10-19T02:31:15.842Z,8.70
2022-10-19T02:32:15.816Z,8.40
2022-10-19T02:33:15.842Z,8.10
2022-10-19T02:34:15.799Z,7.10
2022-10-19T02:35:15.793Z,7.50
2022-10-19T02:36:15.775Z,7.20
2022-10-19T02:37:15.841Z,7.20
2022-10-19T02:38:15.765Z,7.00
2022-10-19T02:39:15.802Z,6.70
2022-10-19T02:40:15.739Z,6.70
2022-10-19T02:41:15.734Z,7.30
2022-10-19T02:42:15.707Z,6.70
2022-10-19T02:43:15.719Z,6.90
2022-10-19T02:44:15.690Z,6.90
2022-10-19T02:45:15.718Z,7.20
2022-10-19T02:46:15.669Z,6.80
2022-10-19T02:47:15.670Z,6.40
2022-10-19T02:48:15.658Z,7.10
2022-10-19T02:49:15.658Z,6.80
2022-10-19T02:50:15.631Z,6.60
2022-10-19T02:51:15.668Z,6.40
2022-10-19T02:52:15.596Z,6.90
2022-10-19T02:53:15.603Z,6.60
2022-10-19T02:54:15.588Z,6.80
2022-10-19T02:55:15.582Z,6.80
2022-10-19T02:56:15.568Z,6.80
2022-10-19T02:57:15.611Z,6.70
2022-10-19T02:58:15.543Z,6.50
2022-10-19T02:59:15.541Z,6.90
2022-10-19T03:00:15.518Z,6.60
2022-10-19T03:01:15.590Z,7.10
2022-10-19T03:02:15.497Z,6.90
2022-10-19T03:03:15.539Z,7.00
2022-10-19T03:04:15.484Z,6.60
2022-10-19T03:05:15.487Z,6.80
2022-10-19T03:06:15.470Z,6.90
2022-10-19T03:07:15.454Z,7.00
2022-10-19T03:08:15.433Z,6.50
2022-10-19T03:09:15.474Z,7.60
2022-10-19T03:10:15.414Z,7.00
2022-10-19T03:11:15.416Z,6.80
2022-10-19T03:12:15.395Z,7.10
2022-10-19T03:13:15.405Z,7.60
2022-10-19T03:14:15.372Z,7.10
2022-10-19T03:15:15.403Z,6.80
2022-10-19T03:16:15.367Z,6.70
2022-10-19T03:17:15.347Z,7.00
2022-10-19T03:18:15.334Z,7.20
2022-10-19T03:19:15.330Z,7.20
2022-10-19T03:20:15.299Z,6.90
2022-10-19T03:21:15.420Z,6.40
2022-10-19T03:22:15.285Z,6.80
2022-10-19T03:23:15.282Z,6.30
2022-10-19T03:24:15.263Z,6.30
2022-10-19T03:25:15.270Z,6.50
2022-10-19T03:26:15.249Z,6.10
2022-10-19T03:27:15.280Z,5.90
2022-10-19T03:28:15.221Z,6.00
2022-10-19T03:29:15.226Z,6.40
2022-10-19T03:30:15.202Z,6.80
2022-10-19T03:31:15.197Z,6.80
2022-10-19T03:32:15.185Z,6.60
2022-10-19T03:33:15.309Z,6.60
2022-10-19T03:34:15.165Z,6.40
2022-10-19T03:35:15.163Z,6.90
2022-10-19T03:36:15.153Z,7.30
2022-10-19T03:37:15.139Z,6.60
2022-10-19T03:38:15.132Z,7.20
2022-10-19T03:39:15.149Z,7.20
2022-10-19T03:40:15.096Z,7.20
2022-10-19T03:41:15.098Z,6.90
2022-10-19T03:42:15.094Z,6.20
2022-10-19T03:43:15.082Z,7.40
2022-10-19T03:44:15.064Z,6.60
2022-10-19T03:45:15.113Z,6.90
2022-10-19T03:46:15.047Z,7.10
2022-10-19T03:47:15.031Z,6.80
2022-10-19T03:48:15.019Z,6.60
2022-10-19T03:49:15.013Z,6.60
2022-10-19T03:50:14.987Z,6.50
2022-10-19T03:51:15.042Z,6.80
2022-10-19T03:52:14.970Z,6.90
2022-10-19T03:53:14.973Z,6.40
2022-10-19T03:54:14.947Z,6.30
2022-10-19T03:55:14.948Z,7.00
2022-10-19T03:56:14.925Z,7.40
2022-10-19T03:57:14.957Z,6.70
2022-10-19T03:58:14.902Z,6.30
2022-10-19T03:59:14.908Z,6.50
2022-10-19T04:00:14.894Z,6.20
2022-10-19T04:01:14.931Z,6.30
2022-10-19T04:02:14.865Z,6.10
2022-10-19T04:03:14.898Z,6.20
2022-10-19T04:04:14.839Z,6.30
2022-10-19T04:05:14.840Z,6.40
2022-10-19T04:06:17.033Z,6.50
2022-10-19T04:07:14.819Z,7.20
2022-10-19T04:08:14.802Z,7.00
2022-10-19T04:09:14.841Z,6.60
2022-10-19T04:10:14.771Z,6.10
2022-10-19T04:11:14.792Z,5.80
2022-10-19T04:12:14.763Z,5.80
2022-10-19T04:13:14.760Z,6.10
2022-10-19T04:14:22.657Z,6.20
2022-10-19T04:15:14.784Z,6.30
2022-10-19T04:16:14.725Z,6.60
2022-10-19T04:17:14.709Z,6.50
2022-10-19T04:18:14.692Z,6.70
2022-10-19T04:19:14.698Z,6.80
2022-10-19T04:20:14.669Z,7.00
2022-10-19T04:21:14.722Z,6.60
2022-10-19T04:22:14.657Z,6.30
2022-10-19T04:23:14.660Z,6.40
2022-10-19T04:24:14.637Z,6.00
2022-10-19T04:25:14.625Z,5.70
2022-10-19T04:26:14.606Z,6.00
2022-10-19T04:27:14.727Z,6.10
2022-10-19T04:28:14.581Z,6.10
2022-10-19T04:29:14.679Z,6.90
2022-10-19T04:30:14.572Z,6.80
2022-10-19T04:31:14.567Z,6.10
2022-10-19T04:32:14.543Z,6.00
2022-10-19T04:33:14.711Z,6.10
2022-10-19T04:34:14.533Z,5.90
2022-10-19T04:35:14.530Z,6.10
2022-10-19T04:36:14.505Z,5.60
2022-10-19T04:37:14.510Z,6.20
2022-10-19T04:38:14.534Z,6.00
2022-10-19T04:39:14.524Z,6.10
2022-10-19T04:40:15.088Z,6.60
2022-10-19T04:41:14.468Z,6.00
2022-10-19T04:42:14.452Z,6.60
2022-10-19T04:43:14.448Z,5.90
2022-10-19T04:44:14.472Z,6.60
2022-10-19T04:45:14.496Z,5.30
2022-10-19T04:46:14.392Z,5.50
2022-10-19T04:47:14.395Z,5.30
2022-10-19T04:48:15.216Z,5.80
2022-10-19T04:49:16.516Z,5.50
2022-10-19T04:50:14.358Z,5.10
2022-10-19T04:51:14.393Z,5.20
2022-10-19T04:52:14.340Z,5.20
2022-10-19T04:53:14.420Z,5.60
2022-10-19T04:54:14.319Z,5.60
2022-10-19T04:55:14.317Z,5.80
2022-10-19T04:56:14.294Z,5.80
2022-10-19T04:57:14.315Z,5.90
2022-10-19T04:58:14.270Z,5.80
2022-10-19T04:59:14.285Z,6.00
2022-10-19T05:00:14.249Z,6.20
2022-10-19T05:01:14.320Z,6.00
2022-10-19T05:02:14.242Z,6.00
2022-10-19T05:03:14.277Z,5.90
2022-10-19T05:04:14.207Z,6.20
2022-10-19T05:05:14.216Z,5.90
2022-10-19T05:06:14.183Z,7.00
2022-10-19T05:07:14.207Z,6.00
2022-10-19T05:08:14.158Z,5.80
2022-10-19T05:09:14.200Z,6.00
2022-10-19T05:10:14.136Z,6.20
2022-10-19T05:11:14.238Z,6.10
2022-10-19T05:12:14.120Z,6.40
2022-10-19T05:13:14.117Z,6.30
2022-10-19T05:14:14.159Z,7.20
2022-10-19T05:15:14.137Z,6.70
2022-10-19T05:16:14.074Z,7.00
2022-10-19T05:17:14.079Z,6.60
2022-10-19T05:18:14.051Z,6.40
2022-10-19T05:19:14.065Z,7.50
2022-10-19T05:20:14.093Z,8.10
2022-10-19T05:21:14.033Z,7.90
2022-10-19T05:22:14.019Z,8.30
2022-10-19T05:23:14.021Z,8.00
2022-10-19T05:24:13.991Z,8.00
2022-10-19T05:25:14.000Z,8.30
2022-10-19T05:26:13.995Z,9.00
2022-10-19T05:27:13.977Z,8.20
2022-10-19T05:28:13.976Z,7.70
2022-10-19T05:29:13.955Z,7.90
2022-10-19T05:30:13.932Z,8.50
2022-10-19T05:31:13.958Z,7.50
2022-10-19T05:32:13.905Z,7.70
2022-10-19T05:33:13.905Z,7.70
2022-10-19T05:34:13.884Z,7.70
2022-10-19T05:35:16.385Z,7.30
2022-10-19T05:36:13.861Z,7.50
2022-10-19T05:37:13.883Z,7.30
2022-10-19T05:38:13.846Z,7.00
2022-10-19T05:39:13.853Z,7.20
2022-10-19T05:40:13.819Z,6.40
2022-10-19T05:41:13.819Z,6.90
2022-10-19T05:42:13.833Z,7.00
2022-10-19T05:43:13.814Z,6.80
2022-10-19T05:44:13.777Z,7.20
2022-10-19T05:45:13.767Z,7.30
2022-10-19T05:46:13.765Z,7.60
2022-10-19T05:47:13.755Z,7.30
2022-10-19T05:48:13.775Z,7.00
2022-10-19T05:49:13.722Z,7.10
2022-10-19T05:50:13.723Z,7.10
2022-10-19T05:51:13.700Z,7.20
2022-10-19T05:52:13.714Z,7.20
2022-10-19T05:53:13.717Z,6.80
2022-10-19T05:54:13.692Z,7.20
2022-10-19T05:55:13.659Z,6.80
2022-10-19T05:56:13.681Z,6.80
2022-10-19T05:57:13.829Z,6.40
2022-10-19T05:58:13.643Z,6.30
2022-10-19T05:59:13.754Z,6.50
2022-10-19T06:00:13.624Z,6.30
2022-10-19T06:01:13.615Z,6.30
2022-10-19T06:02:13.658Z,5.60
2022-10-19T06:03:13.585Z,5.50
2022-10-19T06:04:13.601Z,5.50
2022-10-19T06:05:13.595Z,5.60
2022-10-19T06:06:13.565Z,5.30
2022-10-19T06:07:13.575Z,5.00
2022-10-19T06:08:13.534Z,5.70
2022-10-19T06:09:13.516Z,5.20
2022-10-19T06:10:13.534Z,5.30
2022-10-19T06:11:13.529Z,5.00
2022-10-19T06:12:15.760Z,5.10
2022-10-19T06:13:13.473Z,8.30
2022-10-19T06:14:13.483Z,5.30
2022-10-19T06:15:13.453Z,5.20
2022-10-19T06:16:13.451Z,4.80
2022-10-19T06:17:13.487Z,4.90
2022-10-19T06:18:13.446Z,4.40
2022-10-19T06:19:13.405Z,5.00
2022-10-19T06:20:13.404Z,4.60
2022-10-19T06:21:13.385Z,4.80
2022-10-19T06:22:13.402Z,4.10
2022-10-19T06:23:13.389Z,4.40
2022-10-19T06:24:13.369Z,4.10
2022-10-19T06:25:16.625Z,4.10
2022-10-19T06:26:13.364Z,4.00
2022-10-19T06:27:13.483Z,4.10
2022-10-19T06:28:13.326Z,4.30
2022-10-19T06:29:13.337Z,4.20
2022-10-19T06:30:13.436Z,4.50
2022-10-19T06:31:13.277Z,4.10
2022-10-19T06:32:13.285Z,4.40
2022-10-19T06:33:13.276Z,4.10
2022-10-19T06:34:13.378Z,4.20
2022-10-19T06:35:13.261Z,4.00
2022-10-19T06:36:13.249Z,4.20
2022-10-19T06:37:13.214Z,4.00
2022-10-19T06:38:13.228Z,4.20
2022-10-19T06:39:13.216Z,4.60
2022-10-19T06:40:13.238Z,4.60
2022-10-19T06:41:13.239Z,4.60
2022-10-19T06:42:13.174Z,4.80
2022-10-19T06:43:13.170Z,5.40
2022-10-19T06:44:13.152Z,4.80
2022-10-19T06:45:13.133Z,5.00
2022-10-19T06:46:13.135Z,5.10
2022-10-19T06:47:13.163Z,4.60
2022-10-19T06:48:13.114Z,5.00
2022-10-19T06:49:13.086Z,5.20
2022-10-19T06:50:13.093Z,5.30
2022-10-19T06:51:13.075Z,5.10
2022-10-19T06:52:13.074Z,5.20
2022-10-19T06:53:13.083Z,4.60
2022-10-19T06:54:13.151Z,4.80
2022-10-19T06:55:13.036Z,4.70
2022-10-19T06:56:13.044Z,5.20
2022-10-19T06:57:13.009Z,4.80
2022-10-19T06:58:13.010Z,4.60
2022-10-19T06:59:14.092Z,4.60
2022-10-19T07:00:12.997Z,4.70
2022-10-19T07:01:13.045Z,4.60
2022-10-19T07:02:12.968Z,4.80
2022-10-19T07:03:12.948Z,5.00
2022-10-19T07:04:12.956Z,5.20
2022-10-19T07:05:12.965Z,5.20
2022-10-19T07:06:12.942Z,4.80
2022-10-19T07:07:12.901Z,5.30
2022-10-19T07:08:12.963Z,5.30
2022-10-19T07:09:12.878Z,5.60
2022-10-19T07:10:12.882Z,4.80
2022-10-19T07:11:12.902Z,5.60
2022-10-19T07:12:12.856Z,4.90
2022-10-19T07:13:12.842Z,5.60
2022-10-19T07:14:12.856Z,5.80
2022-10-19T07:15:12.816Z,5.30
2022-10-19T07:16:16.146Z,5.60
2022-10-19T07:17:12.830Z,5.60
2022-10-19T07:18:12.831Z,5.90
2022-10-19T07:19:12.771Z,5.60
2022-10-19T07:20:12.777Z,5.90
2022-10-19T07:21:12.756Z,6.10
2022-10-19T07:22:18.637Z,6.30
2022-10-19T07:23:12.768Z,5.40
2022-10-19T07:24:12.732Z,6.00
2022-10-19T07:25:12.733Z,6.20
2022-10-19T07:26:12.718Z,6.20
2022-10-19T07:27:13.010Z,6.30
2022-10-19T07:28:12.690Z,6.30
2022-10-19T07:29:12.696Z,7.00
2022-10-19T07:30:12.684Z,6.20
2022-10-19T07:31:12.646Z,7.30
2022-10-19T07:32:12.650Z,7.70
2022-10-19T07:33:12.644Z,7.30
2022-10-19T07:34:12.628Z,7.50
2022-10-19T07:35:12.641Z,7.60
2022-10-19T07:36:12.610Z,8.80
2022-10-19T07:37:12.579Z,8.60
2022-10-19T07:38:12.587Z,8.20
2022-10-19T07:39:12.575Z,8.10
2022-10-19T07:40:12.564Z,9.20
2022-10-19T07:41:12.588Z,9.90
2022-10-19T07:42:12.643Z,9.50
2022-10-19T07:43:12.529Z,9.70
2022-10-19T07:44:15.549Z,9.70
2022-10-19T07:45:12.501Z,10.90
2022-10-19T07:46:12.512Z,9.40
2022-10-19T07:47:12.517Z,10.80
2022-10-19T07:48:12.479Z,10.50
2022-10-19T07:49:12.463Z,10.60
2022-10-19T07:50:12.457Z,10.00
2022-10-19T07:51:12.435Z,9.90
2022-10-19T07:52:12.439Z,10.60
2022-10-19T07:53:12.444Z,10.10
2022-10-19T07:54:12.414Z,10.80
2022-10-19T07:55:12.393Z,12.20
2022-10-19T07:56:12.417Z,12.00
2022-10-19T07:57:12.373Z,10.40
2022-10-19T07:58:12.387Z,11.20
2022-10-19T07:59:12.382Z,11.00
2022-10-19T08:00:12.351Z,11.30
2022-10-19T08:01:12.326Z,11.30
2022-10-19T08:02:12.392Z,11.80
2022-10-19T08:03:57.160Z,11.90
2022-10-19T08:04:59.445Z,12.00
2022-10-19T08:05:12.891Z,14.10
2022-10-19T08:06:12.294Z,14.10
2022-10-19T08:07:12.273Z,13.80
2022-10-19T08:08:12.267Z,13.80
2022-10-19T08:09:27.780Z,14.20
2022-10-19T08:10:12.279Z,15.00
2022-10-19T08:11:12.230Z,14.70
2022-10-19T08:12:15.080Z,15.30
2022-10-19T08:13:12.197Z,14.90
2022-10-19T08:14:12.204Z,15.10
2022-10-19T08:15:12.194Z,16.20
2022-10-19T08:16:12.205Z,17.00
2022-10-19T08:17:12.154Z,16.10
2022-10-19T08:18:12.170Z,16.10
2022-10-19T08:19:12.151Z,16.80
2022-10-19T08:20:12.142Z,17.20
2022-10-19T08:21:12.119Z,16.30
2022-10-19T08:22:12.148Z,17.50
2022-10-19T08:23:12.099Z,16.70
2022-10-19T08:24:12.098Z,18.30
2022-10-19T08:25:12.081Z,18.00
2022-10-19T08:26:12.075Z,18.70
2022-10-19T08:27:12.052Z,18.60
2022-10-19T08:28:12.083Z,17.80
2022-10-19T08:29:12.032Z,19.20
2022-10-19T08:30:12.034Z,17.90
2022-10-19T08:31:12.009Z,18.50
2022-10-19T08:32:12.014Z,18.20
2022-10-19T08:33:11.983Z,19.30
2022-10-19T08:34:12.014Z,18.10
2022-10-19T08:35:11.963Z,18.10
2022-10-19T08:36:11.970Z,18.50
2022-10-19T08:37:25.654Z,19.70
2022-10-19T08:38:11.953Z,19.20
2022-10-19T08:39:11.949Z,18.20
2022-10-19T08:40:11.939Z,18.10
2022-10-19T08:41:11.903Z,17.70
2022-10-19T08:42:11.906Z,17.90
2022-10-19T08:43:11.881Z,17.10
2022-10-19T08:44:11.879Z,16.80
2022-10-19T08:45:11.881Z,16.00
2022-10-19T08:46:11.861Z,17.30
2022-10-19T08:47:12.537Z,17.10
2022-10-19T08:48:11.979Z,16.40
2022-10-19T08:49:11.843Z,16.60
2022-10-19T08:50:11.840Z,16.90
2022-10-19T08:51:11.820Z,15.00
2022-10-19T08:52:11.794Z,16.00
2022-10-19T08:53:11.792Z,15.50
2022-10-19T08:54:11.774Z,15.00
2022-10-19T08:55:15.039Z,15.40
2022-10-19T08:56:15.027Z,15.60
2022-10-19T08:57:11.740Z,14.20
2022-10-19T08:58:11.751Z,14.60
2022-10-19T08:59:11.706Z,15.10
2022-10-19T09:00:11.717Z,13.80
2022-10-19T09:01:11.742Z,13.80
2022-10-19T09:02:11.688Z,13.50
2022-10-19T09:03:11.694Z,12.30
2022-10-19T09:04:11.672Z,12.40
2022-10-19T09:05:11.689Z,12.60
2022-10-19T09:06:11.649Z,13.10
2022-10-19T09:07:11.669Z,12.20
2022-10-19T09:08:16.696Z,10.90
2022-10-19T09:09:11.606Z,11.60
2022-10-19T09:10:11.599Z,12.90
2022-10-19T09:11:11.580Z,12.90
2022-10-19T09:12:11.636Z,11.90
2022-10-19T09:13:11.563Z,11.60
2022-10-19T09:14:11.561Z,10.90
2022-10-19T09:15:11.553Z,10.30
2022-10-19T09:16:11.539Z,10.40
2022-10-19T09:17:11.512Z,9.40
2022-10-19T09:18:11.542Z,9.70
2022-10-19T09:19:11.544Z,8.40
2022-10-19T09:20:11.540Z,8.80
2022-10-19T09:21:11.482Z,7.40
2022-10-19T09:22:11.473Z,7.80
2022-10-19T09:23:13.483Z,8.00
2022-10-19T09:24:11.453Z,7.40
2022-10-19T09:25:11.466Z,7.30
2022-10-19T09:26:11.431Z,7.80
2022-10-19T09:27:11.426Z,6.90
2022-10-19T09:28:11.410Z,6.80
2022-10-19T09:29:11.418Z,7.00
2022-10-19T09:30:11.395Z,7.10
2022-10-19T09:31:11.370Z,6.30
2022-10-19T09:32:11.369Z,6.60
2022-10-19T09:33:15.253Z,7.30
2022-10-19T09:34:11.367Z,6.70
2022-10-19T09:35:11.326Z,6.60
2022-10-19T09:36:22.301Z,6.70
2022-10-19T09:37:15.989Z,7.20
2022-10-19T09:38:11.309Z,6.10
2022-10-19T09:39:11.281Z,6.40
2022-10-19T09:40:11.306Z,6.60
2022-10-19T09:41:11.258Z,6.00
2022-10-19T09:42:11.288Z,5.70
2022-10-19T09:43:11.238Z,5.50
2022-10-19T09:44:11.237Z,5.40
2022-10-19T09:45:11.259Z,6.20
2022-10-19T09:46:19.477Z,6.00
2022-10-19T09:47:13.672Z,5.50
2022-10-19T09:48:13.140Z,5.20
2022-10-19T09:49:11.192Z,5.20
2022-10-19T09:50:11.179Z,5.40
2022-10-19T09:51:11.175Z,5.30
2022-10-19T09:52:11.177Z,5.10
2022-10-19T09:53:11.132Z,4.50
2022-10-19T09:54:11.132Z,4.50
2022-10-19T09:55:11.107Z,4.50
2022-10-19T09:56:11.109Z,4.40
2022-10-19T09:57:11.163Z,4.60
2022-10-19T09:58:11.107Z,4.90
2022-10-19T09:59:11.063Z,4.80
2022-10-19T10:00:11.081Z,4.70
2022-10-19T10:01:11.061Z,4.30
2022-10-19T10:02:11.038Z,4.20
2022-10-19T10:03:11.183Z,3.70
2022-10-19T10:04:11.024Z,3.90
2022-10-19T10:05:11.011Z,3.80
2022-10-19T10:06:10.988Z,3.80
2022-10-19T10:07:11.023Z,3.30
2022-10-19T10:08:10.981Z,3.30
2022-10-19T10:09:11.241Z,3.20
2022-10-19T10:10:10.954Z,3.30
2022-10-19T10:11:10.944Z,3.30
2022-10-19T10:12:10.920Z,3.20
2022-10-19T10:13:10.956Z,3.30
2022-10-19T10:14:10.904Z,3.30
2022-10-19T10:15:11.025Z,3.00
2022-10-19T10:16:10.879Z,3.10
2022-10-19T10:17:10.893Z,2.90
2022-10-19T10:18:10.877Z,2.50
2022-10-19T10:19:10.862Z,2.50
2022-10-19T10:20:10.838Z,2.60
2022-10-19T10:21:10.880Z,2.30
2022-10-19T10:22:10.813Z,3.10
2022-10-19T10:23:10.823Z,2.50
2022-10-19T10:24:10.790Z,2.50
2022-10-19T10:25:10.847Z,2.20
2022-10-19T10:26:10.769Z,2.30
2022-10-19T10:27:10.835Z,2.70
2022-10-19T10:28:10.753Z,2.50
2022-10-19T10:29:10.786Z,2.50
2022-10-19T10:30:10.728Z,2.40
2022-10-19T10:31:10.748Z,2.40
2022-10-19T10:32:10.739Z,2.50
2022-10-19T10:33:26.404Z,2.40
2022-10-19T10:34:22.666Z,2.30
2022-10-19T10:35:10.731Z,2.70
2022-10-19T10:36:10.668Z,2.30
2022-10-19T10:37:10.673Z,2.50
2022-10-19T10:38:10.650Z,2.20
2022-10-19T10:39:10.683Z,2.10
2022-10-19T10:40:10.623Z,2.30
2022-10-19T10:41:10.623Z,2.30
2022-10-19T10:42:10.609Z,2.50
2022-10-19T10:43:10.600Z,2.40
2022-10-19T10:44:10.799Z,2.50
2022-10-19T10:45:10.603Z,2.40
2022-10-19T10:46:10.563Z,2.50
2022-10-19T10:47:10.559Z,2.40
2022-10-19T10:48:10.536Z,2.20
2022-10-19T10:49:10.542Z,2.90
2022-10-19T10:50:10.511Z,2.40
2022-10-19T10:51:10.543Z,2.60
2022-10-19T10:52:10.502Z,2.50
2022-10-19T10:53:10.493Z,2.50
2022-10-19T10:54:10.473Z,2.60
2022-10-19T10:55:10.506Z,2.30
2022-10-19T10:56:10.445Z,2.60
2022-10-19T10:57:10.514Z,2.50
2022-10-19T10:58:10.428Z,2.50
2022-10-19T10:59:10.575Z,2.60
2022-10-19T11:00:10.420Z,2.50
2022-10-19T11:01:10.409Z,2.50
2022-10-19T11:02:10.525Z,2.70
2022-10-19T11:03:10.413Z,2.80
2022-10-19T11:04:10.365Z,3.00
2022-10-19T11:05:10.376Z,2.80
2022-10-19T11:06:10.351Z,2.80
2022-10-19T11:07:10.341Z,2.90
2022-10-19T11:08:10.325Z,2.90
2022-10-19T11:09:10.408Z,2.80
2022-10-19T11:10:10.295Z,2.90
2022-10-19T11:11:10.301Z,3.10
2022-10-19T11:12:10.279Z,3.00
2022-10-19T11:13:10.284Z,2.90
2022-10-19T11:14:10.256Z,3.00
2022-10-19T11:15:10.289Z,3.10
2022-10-19T11:16:10.238Z,2.90
2022-10-19T11:17:10.234Z,2.80
2022-10-19T11:18:10.212Z,2.90
2022-10-19T11:19:10.270Z,3.00
2022-10-19T11:20:10.189Z,2.90
2022-10-19T11:21:10.234Z,3.10
2022-10-19T11:22:10.166Z,2.70
2022-10-19T11:23:10.175Z,2.70
2022-10-19T11:24:10.148Z,2.80
2022-10-19T11:25:10.147Z,2.80
2022-10-19T11:26:10.129Z,2.50
2022-10-19T11:27:10.154Z,2.90
2022-10-19T11:28:10.100Z,2.90
2022-10-19T11:29:10.107Z,2.70
2022-10-19T11:30:10.080Z,2.80
2022-10-19T11:31:10.092Z,2.70
2022-10-19T11:32:10.060Z,2.60
2022-10-19T11:33:10.082Z,2.70
2022-10-19T11:34:10.041Z,2.60
2022-10-19T11:35:10.040Z,2.50
2022-10-19T11:36:10.016Z,2.40
2022-10-19T11:37:10.031Z,2.30
2022-10-19T11:38:29.527Z,2.20
2022-10-19T11:39:10.036Z,2.40
2022-10-19T11:40:09.973Z,2.10
2022-10-19T11:41:17.843Z,2.10
2022-10-19T11:42:09.955Z,2.10
2022-10-19T11:43:09.951Z,2.20
2022-10-19T11:44:09.936Z,2.10
2022-10-19T11:45:09.952Z,2.30
2022-10-19T11:46:09.906Z,2.30
2022-10-19T11:47:09.921Z,2.30
2022-10-19T11:48:09.883Z,2.20
2022-10-19T11:49:09.891Z,2.20
2022-10-19T11:51:20.775Z,2.40
2022-10-19T11:52:09.853Z,2.20
2022-10-19T11:53:09.850Z,2.10
2022-10-19T11:54:14.435Z,2.10
2022-10-19T11:55:09.820Z,2.00
2022-10-19T11:56:09.850Z,2.10
2022-10-19T11:57:11.624Z,2.20
2022-10-19T11:58:09.776Z,2.00
2022-10-19T11:59:09.852Z,2.30
2022-10-19T12:00:15.470Z,1.90
2022-10-19T12:01:09.800Z,1.90
2022-10-19T12:02:09.771Z,1.90
2022-10-19T12:03:09.773Z,1.90
2022-10-19T12:04:09.709Z,1.90
2022-10-19T12:05:09.719Z,1.90
2022-10-19T12:06:09.697Z,1.90
2022-10-19T12:07:09.698Z,1.80
2022-10-19T12:08:09.756Z,1.70
2022-10-19T12:09:09.791Z,2.00
2022-10-19T12:10:09.645Z,1.60
2022-10-19T12:11:09.699Z,1.70
2022-10-19T12:12:09.636Z,1.70
2022-10-19T12:13:09.645Z,1.80
2022-10-19T12:14:09.651Z,1.70
2022-10-19T12:15:09.629Z,1.70
2022-10-19T12:16:09.580Z,1.70
2022-10-19T12:17:09.658Z,1.80
2022-10-19T12:18:09.571Z,1.60
2022-10-19T12:19:09.566Z,1.60
2022-10-19T12:20:09.540Z,1.60
2022-10-19T12:21:09.675Z,1.60
2022-10-19T12:22:09.521Z,1.80
2022-10-19T12:23:09.525Z,1.40
2022-10-19T12:24:09.495Z,1.70
2022-10-19T12:25:09.505Z,1.70
2022-10-19T12:26:09.529Z,1.50
2022-10-19T12:27:09.610Z,1.60
2022-10-19T12:28:09.455Z,1.50
2022-10-19T12:29:09.468Z,1.50
2022-10-19T12:30:09.497Z,1.80
2022-10-19T12:31:09.434Z,1.60
2022-10-19T12:32:09.423Z,1.60
2022-10-19T12:33:09.472Z,1.70
2022-10-19T12:34:09.389Z,1.70
2022-10-19T12:35:09.485Z,1.50
2022-10-19T12:36:09.372Z,1.50
2022-10-19T12:37:09.395Z,1.50
2022-10-19T12:38:09.350Z,1.50
2022-10-19T12:39:09.382Z,1.40
2022-10-19T12:40:09.378Z,1.60
2022-10-19T12:41:09.326Z,1.60
2022-10-19T12:42:09.299Z,1.50
2022-10-19T12:43:09.342Z,1.40
2022-10-19T12:44:09.279Z,1.40
2022-10-19T12:45:09.304Z,1.40
2022-10-19T12:46:09.265Z,1.50
2022-10-19T12:47:09.264Z,1.50
2022-10-19T12:48:09.242Z,1.30
2022-10-19T12:49:09.245Z,1.30
2022-10-19T12:50:09.384Z,1.40
2022-10-19T12:51:09.255Z,1.40
2022-10-19T12:52:09.205Z,1.40
2022-10-19T12:53:09.194Z,1.50
2022-10-19T12:54:09.190Z,1.50
2022-10-19T12:55:09.176Z,1.40
2022-10-19T12:56:09.151Z,1.30
2022-10-19T12:57:09.197Z,1.40
2022-10-19T12:58:09.126Z,1.40
2022-10-19T12:59:09.132Z,1.40
2022-10-19T13:00:09.241Z,1.30
2022-10-19T13:01:09.164Z,1.40
2022-10-19T13:02:09.084Z,1.30
2022-10-19T13:03:09.116Z,1.30
2022-10-19T13:04:09.080Z,1.70
2022-10-19T13:05:09.071Z,1.40
2022-10-19T13:06:09.046Z,1.30
2022-10-19T13:07:09.069Z,1.30
2022-10-19T13:08:12.129Z,1.20
2022-10-19T13:09:09.138Z,1.40
2022-10-19T13:10:09.043Z,1.40
2022-10-19T13:11:08.996Z,1.30
2022-10-19T13:12:08.977Z,1.20
2022-10-19T13:13:08.985Z,1.40
2022-10-19T13:14:08.972Z,1.20
2022-10-19T13:15:08.989Z,1.30
2022-10-19T13:16:08.949Z,1.50